createdAt,value
2017-09-25T00:11:46.530Z,20.30
2017-09-25T00:14:12.952Z,20.97
2017-09-25T00:16:39.510Z,21.20
2017-09-25T00:19:06.967Z,21.30
2017-09-25T00:21:33.513Z,22.60
2017-09-25T00:24:00.169Z,19.00
2017-09-25T00:26:28.312Z,18.90
2017-09-25T00:28:55.024Z,19.00
2017-09-25T00:31:21.615Z,20.20
2017-09-25T00:33:48.420Z,20.23
2017-09-25T00:36:15.044Z,19.03
2017-09-25T00:38:42.714Z,18.93
2017-09-25T00:41:09.193Z,19.57
2017-09-25T00:43:36.656Z,19.93
2017-09-25T00:46:04.196Z,20.00
2017-09-25T00:48:31.648Z,19.30
2017-09-25T00:50:58.080Z,19.10
2017-09-25T00:53:43.313Z,19.10
2017-09-25T00:56:09.956Z,18.83
2017-09-25T01:01:50.223Z,18.00
2017-09-25T01:07:30.379Z,18.17
2017-09-25T01:12:52.300Z,20.30
2017-09-25T01:15:27.951Z,19.53
2017-09-25T01:17:55.874Z,20.30
2017-09-25T01:20:22.519Z,19.73
2017-09-25T01:22:49.275Z,19.83
2017-09-25T01:25:15.880Z,20.47
2017-09-25T01:27:43.368Z,19.53
2017-09-25T01:30:11.041Z,20.77
2017-09-25T01:32:37.616Z,21.20
2017-09-25T01:35:05.640Z,20.33
2017-09-25T01:37:32.168Z,19.20
2017-09-25T01:39:58.888Z,17.70
2017-09-25T01:42:27.478Z,18.03
2017-09-25T01:47:52.510Z,18.77
2017-09-25T01:53:14.064Z,18.30
2017-09-25T01:55:40.664Z,20.37
2017-09-25T01:58:07.425Z,20.23
2017-09-25T02:00:34.032Z,19.00
2017-09-25T02:03:00.806Z,17.50
2017-09-25T02:05:42.956Z,16.87
2017-09-25T02:08:09.566Z,15.27
2017-09-25T02:10:36.056Z,17.03
2017-09-25T02:13:02.676Z,18.00
2017-09-25T02:15:29.266Z,20.90
2017-09-25T02:17:59.632Z,19.20
2017-09-25T02:20:26.686Z,20.30
2017-09-25T02:22:56.207Z,18.90
2017-09-25T02:25:23.107Z,18.37
2017-09-25T02:27:49.793Z,19.33
2017-09-25T02:30:16.373Z,21.63
2017-09-25T02:32:43.926Z,19.57
2017-09-25T02:35:10.662Z,21.30
2017-09-25T02:37:39.317Z,21.13
2017-09-25T02:40:05.913Z,21.40
2017-09-25T02:42:32.511Z,20.83
2017-09-25T02:45:02.839Z,21.43
2017-09-25T03:01:53.072Z,19.97
2017-09-25T03:04:19.544Z,20.60
2017-09-25T03:06:46.282Z,20.50
2017-09-25T03:09:12.988Z,19.83
2017-09-25T03:11:40.851Z,20.37
2017-09-25T03:14:07.465Z,20.20
2017-09-25T03:19:25.586Z,20.47
2017-09-25T03:21:56.144Z,22.67
2017-09-25T03:24:22.885Z,23.80
2017-09-25T03:26:50.297Z,21.93
2017-09-25T03:29:19.479Z,21.20
2017-09-25T03:31:46.120Z,21.37
2017-09-25T03:34:12.744Z,21.10
2017-09-25T03:36:41.481Z,22.03
2017-09-25T03:39:08.224Z,22.20
2017-09-25T03:41:35.816Z,20.40
2017-09-25T03:44:03.465Z,19.50
2017-09-25T03:46:31.091Z,20.57
2017-09-25T03:48:57.735Z,22.53
2017-09-25T03:51:25.419Z,22.00
2017-09-25T03:53:52.116Z,22.20
2017-09-25T03:56:18.604Z,21.53
2017-09-25T03:58:46.082Z,22.07
2017-09-25T04:04:06.223Z,22.73
2017-09-25T04:06:32.736Z,24.27
2017-09-25T04:09:01.340Z,24.73
2017-09-25T04:11:30.941Z,22.27
2017-09-25T04:14:00.424Z,22.60
2017-09-25T04:27:59.664Z,22.90
2017-09-25T04:30:26.108Z,22.80
2017-09-25T04:35:51.024Z,21.20
2017-09-25T04:53:58.544Z,16.57
2017-09-25T04:56:26.772Z,17.60
2017-09-25T04:58:53.138Z,15.87
2017-09-25T05:01:20.337Z,16.60
2017-09-25T05:03:46.985Z,18.10
2017-09-25T05:06:14.312Z,17.70
2017-09-25T05:08:41.032Z,17.40
2017-09-25T05:11:07.716Z,18.10
2017-09-25T05:13:34.330Z,17.27
2017-09-25T05:18:56.653Z,18.10
2017-09-25T05:21:24.190Z,17.27
2017-09-25T05:36:23.297Z,16.10
2017-09-25T05:46:35.229Z,16.17
2017-09-25T05:51:56.571Z,19.00
2017-09-25T05:54:26.212Z,20.07
2017-09-25T05:56:53.067Z,20.03
2017-09-25T05:59:19.913Z,20.53
2017-09-25T06:01:46.702Z,18.60
2017-09-25T06:04:14.153Z,22.03
2017-09-25T06:06:43.692Z,19.27
2017-09-25T06:09:10.562Z,19.10
2017-09-25T06:11:39.292Z,21.83
2017-09-25T06:14:05.874Z,18.67
2017-09-25T06:16:32.720Z,19.43
2017-09-25T06:18:59.580Z,21.20
2017-09-25T06:21:26.276Z,19.10
2017-09-25T06:23:52.879Z,17.90
2017-09-25T06:26:20.752Z,22.20
2017-09-25T06:28:47.448Z,21.00
2017-09-25T06:31:14.020Z,22.13
2017-09-25T06:33:41.664Z,23.90
2017-09-25T06:36:09.149Z,25.07
2017-09-25T06:38:36.851Z,26.10
2017-09-25T06:41:03.488Z,23.03
2017-09-25T06:43:30.987Z,23.47
2017-09-25T06:45:58.761Z,22.60
2017-09-25T07:01:48.243Z,21.43
2017-09-25T07:04:14.924Z,23.23
2017-09-25T07:06:42.949Z,25.17
2017-09-25T07:09:09.486Z,25.77
2017-09-25T07:11:38.083Z,24.90
2017-09-25T07:14:04.696Z,25.00
2017-09-25T07:55:33.030Z,27.20
2017-09-25T07:57:59.499Z,28.60
2017-09-25T08:00:27.080Z,28.17
2017-09-25T08:02:53.505Z,30.07
2017-09-25T08:05:20.658Z,27.77
2017-09-25T08:07:47.260Z,26.87
2017-09-25T08:10:13.800Z,24.37
2017-09-25T08:12:40.254Z,24.30
2017-09-25T08:18:16.853Z,27.10
2017-09-25T08:20:43.471Z,27.40
2017-09-25T08:23:10.153Z,27.33
2017-09-25T08:25:37.487Z,26.23
2017-09-25T08:28:04.051Z,28.20
2017-09-25T08:43:53.000Z,27.10
2017-09-25T08:46:20.647Z,26.10
2017-09-25T08:48:47.408Z,28.00
2017-09-25T08:51:14.640Z,27.17
2017-09-25T08:53:41.990Z,27.60
2017-09-25T08:56:08.396Z,26.67
2017-09-25T08:58:34.948Z,29.90
2017-09-25T09:01:01.526Z,27.87
2017-09-25T09:03:29.912Z,26.67
2017-09-25T09:05:57.446Z,25.47
2017-09-25T09:08:43.524Z,26.00
2017-09-25T09:11:10.053Z,22.87
2017-09-25T09:13:36.579Z,27.17
2017-09-25T09:29:24.994Z,24.50
2017-09-25T09:31:51.543Z,26.27
2017-09-25T09:34:18.081Z,24.30
2017-09-25T09:36:56.336Z,24.57
2017-09-25T09:39:22.800Z,25.07
2017-09-25T09:41:52.383Z,24.67
2017-09-25T09:44:18.991Z,24.43
2017-09-25T09:46:46.499Z,24.30
2017-09-25T09:49:13.512Z,23.70
2017-09-25T09:51:41.041Z,24.50
2017-09-25T09:54:07.619Z,22.93
2017-09-25T09:56:34.044Z,24.00
2017-09-25T09:59:01.670Z,23.30
2017-09-25T10:01:34.168Z,23.30
2017-09-25T10:44:13.276Z,20.63
2017-09-25T10:46:40.125Z,19.50
2017-09-25T10:49:06.696Z,21.23
2017-09-25T10:54:43.413Z,19.43
2017-09-25T10:59:50.014Z,19.33
2017-09-25T11:02:16.812Z,19.10
2017-09-25T11:04:43.613Z,21.13
2017-09-25T11:07:11.096Z,20.60
2017-09-25T11:09:37.559Z,19.73
2017-09-25T11:15:00.291Z,20.13
2017-09-25T11:17:58.779Z,19.80
2017-09-25T11:56:46.900Z,19.03
2017-09-25T11:59:13.407Z,18.60
2017-09-25T12:01:39.981Z,17.60
2017-09-25T12:04:06.492Z,18.50
2017-09-25T12:06:33.068Z,19.90
2017-09-25T12:08:59.597Z,19.47
2017-09-25T12:11:27.949Z,18.53
2017-09-25T12:13:54.559Z,15.80
2017-09-25T12:16:21.015Z,16.73
2017-09-25T12:18:47.576Z,16.57
2017-09-25T12:21:30.340Z,16.67
2017-09-25T12:23:57.033Z,17.40
2017-09-25T12:26:25.369Z,17.07
2017-09-25T12:28:52.389Z,16.77
2017-09-25T12:31:21.815Z,17.67
2017-09-25T12:33:58.329Z,18.17
2017-09-25T12:36:25.584Z,17.90
2017-09-25T12:38:53.100Z,15.97
2017-09-25T12:41:22.439Z,16.57
2017-09-25T12:43:49.132Z,16.33
2017-09-25T12:46:16.760Z,16.03
2017-09-25T12:48:44.413Z,17.23
2017-09-25T13:30:13.440Z,16.10
2017-09-25T13:32:39.975Z,14.80
2017-09-25T13:35:06.397Z,15.77
2017-09-25T13:40:34.177Z,16.03
2017-09-25T13:43:02.388Z,14.47
2017-09-25T13:45:30.611Z,16.57
2017-09-25T13:48:00.427Z,14.97
2017-09-25T13:50:27.023Z,14.60
2017-09-25T13:52:53.685Z,15.90
2017-09-25T13:55:20.300Z,14.03
2017-09-25T13:57:47.104Z,12.63
2017-09-25T14:02:46.459Z,12.00
2017-09-25T14:05:24.392Z,10.70
2017-09-25T14:07:51.854Z,10.30
2017-09-25T14:10:18.561Z,10.20
2017-09-25T14:12:45.644Z,10.30
2017-09-25T14:15:12.240Z,10.10
2017-09-25T14:17:42.222Z,10.67
2017-09-25T14:20:09.624Z,10.23
2017-09-25T14:22:36.100Z,9.87
2017-09-25T14:25:03.572Z,7.40
2017-09-25T14:27:30.093Z,8.37
2017-09-25T14:29:58.500Z,10.03
2017-09-25T14:32:31.571Z,8.97
2017-09-25T14:34:59.709Z,7.47
2017-09-25T14:37:29.485Z,7.50
2017-09-25T14:39:56.684Z,7.57
2017-09-25T14:42:24.092Z,7.53
2017-09-25T14:44:50.639Z,8.70
2017-09-25T14:47:18.396Z,8.67
2017-09-25T14:49:44.876Z,8.80
2017-09-25T14:52:13.038Z,8.70
2017-09-25T14:57:50.495Z,7.60
2017-09-25T15:06:05.780Z,6.90
2017-09-25T15:11:06.614Z,7.20
2017-09-25T15:13:33.411Z,6.87
2017-09-25T15:16:00.558Z,6.80
2017-09-25T15:21:21.079Z,6.50
2017-09-25T15:23:47.852Z,7.90
2017-09-25T15:29:08.239Z,7.27
2017-09-25T15:31:37.799Z,7.87
2017-09-25T15:34:05.320Z,6.90
2017-09-25T15:36:31.843Z,6.77
2017-09-25T15:38:58.969Z,7.20
2017-09-25T15:41:25.565Z,6.87
2017-09-25T15:43:54.911Z,7.50
2017-09-25T16:11:03.309Z,6.50
2017-09-25T16:13:40.235Z,6.37
2017-09-25T16:16:06.808Z,5.40
2017-09-25T16:18:33.443Z,6.07
2017-09-25T16:21:00.187Z,5.00
2017-09-25T16:23:26.743Z,5.67
2017-09-25T16:25:53.259Z,5.70
2017-09-25T16:28:19.835Z,6.23
2017-09-25T16:30:46.323Z,6.13
2017-09-25T16:44:40.704Z,5.40
2017-09-25T16:47:11.092Z,5.70
2017-09-25T16:49:38.249Z,5.73
2017-09-25T16:52:05.016Z,7.00
2017-09-25T16:54:34.972Z,8.40
2017-09-25T16:57:02.545Z,7.10
2017-09-25T16:59:30.232Z,7.20
2017-09-25T17:01:57.141Z,7.60
2017-09-25T17:04:24.720Z,9.83
2017-09-25T17:06:53.455Z,9.20
2017-09-25T17:12:15.240Z,7.50
2017-09-25T17:14:41.891Z,8.53
2017-09-25T17:17:11.692Z,8.70
2017-09-25T17:55:26.953Z,9.90
2017-09-25T17:57:53.815Z,9.10
2017-09-25T18:00:20.663Z,9.50
2017-09-25T18:02:49.229Z,8.47
2017-09-25T18:05:27.048Z,8.27
2017-09-25T18:07:53.935Z,8.63
2017-09-25T18:10:22.675Z,8.93
2017-09-25T18:12:51.612Z,7.37
2017-09-25T18:15:19.131Z,8.07
2017-09-25T18:17:45.719Z,7.80
2017-09-25T18:20:12.200Z,7.60
2017-09-25T18:22:39.487Z,8.23
2017-09-25T18:25:07.599Z,8.60
2017-09-25T18:27:44.367Z,11.70
2017-09-25T18:30:11.240Z,11.57
2017-09-25T18:32:37.727Z,12.10
2017-09-25T18:35:06.516Z,11.80
2017-09-25T18:37:33.799Z,10.37
2017-09-25T18:40:01.277Z,13.23
2017-09-25T18:42:27.971Z,10.73
2017-09-25T18:44:54.513Z,11.20
2017-09-25T18:47:21.015Z,12.10
2017-09-25T18:49:47.638Z,11.27
2017-09-25T18:55:10.492Z,13.30
2017-09-25T18:57:37.285Z,12.70
2017-09-25T19:00:03.852Z,12.53
2017-09-25T19:02:32.465Z,12.93
2017-09-25T19:05:00.026Z,12.40
2017-09-25T19:07:26.903Z,11.00
2017-09-25T19:09:54.540Z,11.80
2017-09-25T19:12:22.075Z,8.97
2017-09-25T19:26:21.149Z,10.00
2017-09-25T19:28:47.905Z,9.30
2017-09-25T19:31:15.548Z,9.83
2017-09-25T19:33:42.147Z,8.80
2017-09-25T19:36:08.646Z,10.27
2017-09-25T20:16:02.984Z,12.60
2017-09-25T20:18:30.720Z,12.40
2017-09-25T20:20:58.391Z,14.87
2017-09-25T20:23:25.671Z,13.07
2017-09-25T20:25:52.215Z,12.70
2017-09-25T20:28:18.781Z,13.20
2017-09-25T20:30:45.434Z,12.43
2017-09-25T20:33:13.132Z,11.60
2017-09-25T20:35:40.967Z,11.60
2017-09-25T20:38:17.807Z,15.80
2017-09-25T20:40:45.424Z,14.30
2017-09-25T20:43:14.101Z,14.40
2017-09-25T20:45:41.388Z,13.80
2017-09-25T20:48:08.280Z,12.03
2017-09-25T20:50:37.964Z,13.10
2017-09-25T20:53:07.804Z,13.70
2017-09-25T20:55:34.356Z,12.40
2017-09-25T20:58:01.823Z,11.60
2017-09-25T21:00:29.403Z,10.73
2017-09-25T21:46:23.063Z,11.73
2017-09-25T21:48:50.000Z,10.67
2017-09-25T21:51:16.812Z,13.03
2017-09-25T21:53:44.203Z,13.67
2017-09-25T21:56:10.688Z,14.13
2017-09-25T21:58:37.250Z,14.27
2017-09-25T22:01:03.731Z,15.73
2017-09-25T22:03:32.364Z,15.00
2017-09-25T22:05:59.102Z,12.77
2017-09-25T22:08:26.492Z,14.77
2017-09-25T22:10:52.994Z,12.43
2017-09-25T22:13:21.548Z,13.30
2017-09-25T22:18:43.508Z,13.30
2017-09-25T22:21:10.240Z,13.57
2017-09-25T22:23:37.023Z,13.90
2017-09-25T22:26:03.595Z,13.57
2017-09-25T22:28:30.035Z,12.90
2017-09-25T22:30:57.599Z,12.50
2017-09-25T22:33:24.432Z,12.23
2017-09-25T22:35:50.895Z,13.60
2017-09-25T22:38:17.512Z,13.27
2017-09-25T22:40:44.958Z,12.57
2017-09-25T22:46:23.562Z,14.53
2017-09-25T22:48:50.315Z,15.20
2017-09-25T22:51:16.899Z,15.50
2017-09-25T22:53:44.941Z,15.70
2017-09-25T22:56:11.401Z,15.73
2017-09-25T22:58:38.067Z,15.30
2017-09-25T23:01:04.924Z,14.93
2017-09-25T23:15:51.408Z,14.00
2017-09-25T23:18:18.098Z,13.63
2017-09-25T23:20:44.747Z,13.93
2017-09-25T23:23:11.452Z,12.90
2017-09-25T23:25:38.124Z,12.63
2017-09-25T23:28:05.657Z,14.10
2017-09-25T23:30:36.161Z,12.40
2017-09-25T23:33:06.192Z,11.70
2017-09-25T23:35:32.894Z,12.47
2017-09-25T23:37:59.675Z,12.60
2017-09-25T23:40:26.862Z,11.63
2017-09-25T23:42:53.483Z,12.27
2017-09-25T23:45:21.218Z,14.70
2017-09-25T23:47:47.753Z,14.77
2017-09-25T23:50:14.243Z,13.40
2017-09-25T23:52:43.015Z,14.87
2017-09-25T23:55:10.538Z,13.60
2017-09-25T23:57:37.205Z,13.70
